Time;durP1;ratioP1;P1;durP2;ratioP2;P2;SDS_P1;SDS_P2;PMS_P1;PMS_P2;Temp;Humidity;BMP_temperature;BMP_pressure;BME280_temperature;BME280_humidity;BME280_pressure;Samples;Min_cycle;Max_cycle;Signal;HPM_P1;HPM_P2
2022/03/30 00:01:05;;;;;;;50.67;24.75;;;;;;;;;;5114270;28;20077;-43
2022/03/30 00:03:31;;;;;;;41.45;21.08;;;;;;;;;;5115761;28;20427;-45
2022/03/30 00:05:57;;;;;;;41.78;21.58;;;;;;;;;;5113695;28;20076;-45
2022/03/30 00:08:23;;;;;;;64.63;31.42;;;;;;;;;;5104027;28;20077;-45
2022/03/30 00:10:49;;;;;;;29.33;15.80;;;;;;;;;;5097455;28;20095;-44
2022/03/30 00:13:16;;;;;;;29.02;14.48;;;;;;;;;;5097153;28;20032;-45
2022/03/30 00:15:42;;;;;;;42.95;23.90;;;;;;;;;;5097112;28;20481;-52
2022/03/30 00:18:08;;;;;;;39.60;21.45;;;;;;;;;;5096975;28;20035;-44
2022/03/30 00:20:34;;;;;;;36.58;18.70;;;;;;;;;;5097425;28;20584;-44
2022/03/30 00:23:00;;;;;;;53.55;26.23;;;;;;;;;;5097339;28;20055;-42
2022/03/30 00:25:26;;;;;;;44.90;22.88;;;;;;;;;;5097019;28;20476;-63
2022/03/30 00:27:53;;;;;;;29.98;15.85;;;;;;;;;;5097087;28;20099;-44
2022/03/30 00:30:19;;;;;;;40.88;21.60;;;;;;;;;;5097116;28;20023;-45
2022/03/30 00:32:46;;;;;;;29.48;14.63;;;;;;;;;;5096814;28;20107;-44
2022/03/30 00:35:14;;;;;;;34.72;18.45;;;;;;;;;;5096756;28;20016;-45
2022/03/30 00:37:41;;;;;;;31.70;17.23;;;;;;;;;;5096744;28;20086;-44
2022/03/30 00:40:09;;;;;;;33.28;17.15;;;;;;;;;;5096526;28;20036;-45
2022/03/30 00:42:36;;;;;;;33.65;17.50;;;;;;;;;;5096610;28;20020;-45
2022/03/30 00:45:10;;;;;;;28.17;15.02;;;;;;;;;;5096683;28;20468;-42
2022/03/30 00:47:36;;;;;;;26.45;14.57;;;;;;;;;;5096508;28;20028;-42
2022/03/30 00:50:05;;;;;;;31.90;16.13;;;;;;;;;;5096469;28;20086;-50
2022/03/30 00:52:31;;;;;;;26.77;15.02;;;;;;;;;;5096833;28;20046;-44
2022/03/30 00:54:57;;;;;;;34.47;16.30;;;;;;;;;;5096402;28;20095;-43
2022/03/30 00:57:24;;;;;;;26.90;14.05;;;;;;;;;;5096687;28;20051;-42
2022/03/30 00:59:50;;;;;;;28.48;14.05;;;;;;;;;;5096344;28;20028;-58
2022/03/30 01:02:17;;;;;;;38.33;20.55;;;;;;;;;;5096906;28;20016;-44
2022/03/30 01:04:46;;;;;;;27.35;15.38;;;;;;;;;;5096389;28;20024;-45
2022/03/30 01:07:15;;;;;;;23.90;13.68;;;;;;;;;;5096286;28;20027;-44
2022/03/30 01:09:41;;;;;;;29.98;15.95;;;;;;;;;;5095363;28;20127;-43
2022/03/30 01:12:08;;;;;;;30.58;14.27;;;;;;;;;;5096457;28;20012;-59
2022/03/30 01:14:35;;;;;;;29.67;16.55;;;;;;;;;;5096221;28;20024;-42
2022/03/30 01:17:01;;;;;;;25.63;14.25;;;;;;;;;;5096181;28;20059;-43
2022/03/30 01:19:31;;;;;;;33.72;17.70;;;;;;;;;;5074738;28;20403;-43
2022/03/30 01:21:58;;;;;;;33.80;16.95;;;;;;;;;;5096136;28;20104;-46
2022/03/30 01:24:24;;;;;;;33.90;18.27;;;;;;;;;;5096185;28;20031;-65
2022/03/30 01:26:50;;;;;;;33.83;17.40;;;;;;;;;;5095980;28;20023;-58
2022/03/30 01:34:48;;;;;;;39.20;19.58;;;;;;;;;;5095824;28;20036;-50
2022/03/30 01:37:14;;;;;;;31.08;15.15;;;;;;;;;;5096764;28;20028;-59
2022/03/30 01:39:41;;;;;;;31.65;16.00;;;;;;;;;;5098259;28;20077;-49
2022/03/30 01:42:10;;;;;;;27.00;15.40;;;;;;;;;;5087103;28;20013;-50
2022/03/30 01:44:36;;;;;;;33.55;15.32;;;;;;;;;;5098455;28;20407;-59
2022/03/30 01:47:05;;;;;;;38.40;19.52;;;;;;;;;;5096491;28;20035;-48
2022/03/30 01:49:31;;;;;;;34.15;17.17;;;;;;;;;;5088004;28;20044;-50
2022/03/30 01:52:00;;;;;;;30.48;14.38;;;;;;;;;;5116068;28;20024;-63
2022/03/30 01:54:27;;;;;;;30.52;14.18;;;;;;;;;;5115762;28;20023;-65
2022/03/30 01:56:56;;;;;;;36.38;15.60;;;;;;;;;;5115761;28;20020;-49
2022/03/30 01:59:22;;;;;;;29.08;14.52;;;;;;;;;;5115888;28;20027;-60
2022/03/30 02:01:53;;;;;;;25.92;14.52;;;;;;;;;;5115876;28;20015;-63
2022/03/30 02:04:19;;;;;;;38.22;15.75;;;;;;;;;;5115835;28;20028;-61
2022/03/30 02:06:46;;;;;;;23.48;13.43;;;;;;;;;;5115936;28;20020;-62
2022/03/30 02:09:12;;;;;;;33.50;16.48;;;;;;;;;;5115656;28;20016;-69
2022/03/30 02:11:38;;;;;;;28.92;15.65;;;;;;;;;;5115381;28;20019;-64
2022/03/30 02:14:05;;;;;;;32.22;15.57;;;;;;;;;;5115533;28;20072;-71
2022/03/30 02:16:31;;;;;;;26.98;14.68;;;;;;;;;;5115495;28;20093;-59
2022/03/30 02:18:57;;;;;;;26.90;13.00;;;;;;;;;;5115198;28;20483;-60
2022/03/30 02:21:26;;;;;;;27.45;13.50;;;;;;;;;;5115371;28;20030;-52
2022/03/30 02:23:52;;;;;;;29.95;14.00;;;;;;;;;;5115366;28;20019;-53
2022/03/30 02:26:21;;;;;;;28.92;13.88;;;;;;;;;;5114970;28;20023;-69
2022/03/30 02:28:56;;;;;;;24.90;13.63;;;;;;;;;;5115288;28;20027;-67
2022/03/30 02:31:22;;;;;;;26.58;13.68;;;;;;;;;;5115275;28;20459;-63
2022/03/30 02:33:51;;;;;;;29.63;13.00;;;;;;;;;;5115085;28;20023;-66
2022/03/30 02:36:20;;;;;;;23.63;13.30;;;;;;;;;;5115085;28;20102;-44
2022/03/30 02:38:47;;;;;;;29.83;14.60;;;;;;;;;;5114695;28;20027;-52
2022/03/30 02:41:13;;;;;;;24.85;12.90;;;;;;;;;;5115026;28;20023;-44
2022/03/30 02:43:39;;;;;;;27.63;12.75;;;;;;;;;;5115092;28;20378;-44
2022/03/30 02:46:06;;;;;;;26.08;12.93;;;;;;;;;;5115166;28;20367;-45
2022/03/30 02:48:37;;;;;;;23.45;12.77;;;;;;;;;;5114697;28;20614;-44
2022/03/30 02:51:05;;;;;;;24.67;13.43;;;;;;;;;;5114833;28;20039;-49
2022/03/30 02:53:31;;;;;;;23.02;12.93;;;;;;;;;;5114577;28;20031;-49
2022/03/30 02:55:58;;;;;;;26.17;12.75;;;;;;;;;;5114544;28;20382;-43
2022/03/30 02:58:24;;;;;;;21.98;12.85;;;;;;;;;;5114490;28;20027;-43
2022/03/30 03:00:50;;;;;;;22.38;12.75;;;;;;;;;;5114760;28;20030;-53
2022/03/30 03:03:21;;;;;;;27.95;12.82;;;;;;;;;;5114460;28;20055;-45
2022/03/30 03:05:47;;;;;;;30.25;13.73;;;;;;;;;;5114428;28;20023;-45
2022/03/30 03:08:13;;;;;;;30.63;13.32;;;;;;;;;;5114453;28;20070;-46
2022/03/30 03:10:42;;;;;;;26.15;14.55;;;;;;;;;;5114166;28;20047;-45
2022/03/30 03:13:08;;;;;;;27.58;13.10;;;;;;;;;;5114346;28;20034;-51
2022/03/30 03:15:35;;;;;;;24.55;13.38;;;;;;;;;;5114368;28;20019;-48
2022/03/30 03:18:02;;;;;;;25.25;13.57;;;;;;;;;;5114294;28;20035;-55
2022/03/30 03:20:29;;;;;;;25.45;11.85;;;;;;;;;;5114104;28;20047;-56
2022/03/30 03:22:58;;;;;;;22.55;12.55;;;;;;;;;;5114110;28;20019;-46
2022/03/30 03:25:27;;;;;;;24.63;12.20;;;;;;;;;;5114109;28;20040;-45
2022/03/30 03:27:53;;;;;;;26.40;11.63;;;;;;;;;;5114227;28;20395;-42
2022/03/30 03:30:20;;;;;;;29.70;13.85;;;;;;;;;;5095746;28;20032;-49
2022/03/30 03:32:46;;;;;;;24.05;13.07;;;;;;;;;;5113439;28;20016;-42
2022/03/30 03:35:14;;;;;;;26.67;12.48;;;;;;;;;;5114004;28;20098;-51
2022/03/30 03:37:40;;;;;;;20.33;11.48;;;;;;;;;;5113803;28;20023;-52
2022/03/30 03:40:07;;;;;;;24.42;12.20;;;;;;;;;;5113822;28;20068;-47
2022/03/30 03:42:33;;;;;;;24.55;11.90;;;;;;;;;;5113926;28;20074;-46
2022/03/30 03:45:00;;;;;;;23.60;13.13;;;;;;;;;;5113848;28;20482;-55
2022/03/30 03:47:26;;;;;;;24.05;12.30;;;;;;;;;;5113770;28;20024;-57
2022/03/30 03:49:55;;;;;;;26.73;13.25;;;;;;;;;;5113782;28;20051;-73
2022/03/30 03:52:23;;;;;;;22.00;11.55;;;;;;;;;;5113630;28;20138;-44
2022/03/30 03:54:49;;;;;;;23.88;11.60;;;;;;;;;;5113759;28;20044;-46
2022/03/30 03:57:15;;;;;;;23.17;12.35;;;;;;;;;;5113728;28;20111;-46
2022/03/30 03:59:41;;;;;;;19.45;11.57;;;;;;;;;;5113749;28;20501;-56
2022/03/30 04:02:07;;;;;;;22.05;11.88;;;;;;;;;;5113693;28;20032;-44
2022/03/30 04:04:34;;;;;;;22.55;11.80;;;;;;;;;;5113609;28;20467;-44
2022/03/30 04:07:00;;;;;;;25.08;12.25;;;;;;;;;;5113572;28;20098;-47
2022/03/30 04:09:26;;;;;;;21.90;11.80;;;;;;;;;;5113476;28;20115;-44
2022/03/30 04:11:52;;;;;;;25.25;12.77;;;;;;;;;;5113560;28;20024;-53
2022/03/30 04:14:19;;;;;;;28.08;12.32;;;;;;;;;;5113598;28;20106;-50
2022/03/30 04:16:46;;;;;;;31.80;13.40;;;;;;;;;;5113365;28;20024;-44
2022/03/30 04:19:13;;;;;;;27.30;12.98;;;;;;;;;;5113399;28;20044;-42
2022/03/30 04:21:39;;;;;;;27.95;12.27;;;;;;;;;;5113522;28;20023;-47
2022/03/30 04:24:05;;;;;;;23.15;12.18;;;;;;;;;;5113433;28;20035;-44
2022/03/30 04:26:33;;;;;;;23.30;12.23;;;;;;;;;;5114348;28;20491;-44
2022/03/30 04:29:02;;;;;;;33.00;12.82;;;;;;;;;;5115259;28;20034;-45
2022/03/30 04:31:28;;;;;;;25.60;12.82;;;;;;;;;;5114766;28;20016;-45
2022/03/30 04:33:54;;;;;;;44.38;12.43;;;;;;;;;;5113566;28;20055;-44
2022/03/30 04:36:20;;;;;;;25.88;13.45;;;;;;;;;;5113442;28;20065;-44
2022/03/30 04:38:46;;;;;;;29.92;12.75;;;;;;;;;;5113435;28;20111;-57
2022/03/30 04:41:13;;;;;;;24.95;12.13;;;;;;;;;;5113215;28;20027;-42
2022/03/30 04:43:39;;;;;;;27.17;13.20;;;;;;;;;;5113664;28;20023;-42
2022/03/30 04:46:12;;;;;;;20.00;11.98;;;;;;;;;;5115818;28;20057;-52
2022/03/30 04:48:38;;;;;;;28.13;12.63;;;;;;;;;;5117088;28;20534;-51
2022/03/30 04:51:07;;;;;;;26.10;12.52;;;;;;;;;;5098722;28;20429;-43
2022/03/30 04:53:34;;;;;;;32.67;13.30;;;;;;;;;;5116960;28;20174;-42
2022/03/30 04:56:00;;;;;;;26.83;14.35;;;;;;;;;;5117016;28;20036;-42
2022/03/30 04:58:26;;;;;;;29.67;15.10;;;;;;;;;;5111437;28;20019;-43
2022/03/30 05:00:52;;;;;;;32.35;16.60;;;;;;;;;;5109092;28;20475;-43
2022/03/30 05:03:20;;;;;;;31.38;15.85;;;;;;;;;;5110573;28;20248;-42
2022/03/30 05:05:47;;;;;;;29.35;16.25;;;;;;;;;;5115596;28;20079;-43
2022/03/30 05:08:15;;;;;;;32.10;14.60;;;;;;;;;;5116606;28;20024;-45
2022/03/30 05:10:41;;;;;;;40.05;15.30;;;;;;;;;;5116765;28;20401;-44
2022/03/30 05:13:07;;;;;;;31.35;16.10;;;;;;;;;;5098030;28;20038;-43
2022/03/30 05:15:33;;;;;;;57.83;17.10;;;;;;;;;;5116750;28;20035;-45
2022/03/30 05:18:00;;;;;;;30.85;13.80;;;;;;;;;;5116383;28;20116;-44
2022/03/30 05:20:27;;;;;;;30.38;13.50;;;;;;;;;;5116365;28;20039;-52
2022/03/30 05:22:53;;;;;;;33.25;13.70;;;;;;;;;;5116423;28;20026;-44
2022/03/30 05:25:22;;;;;;;26.00;13.23;;;;;;;;;;5116318;28;20027;-48
2022/03/30 05:27:48;;;;;;;28.15;13.05;;;;;;;;;;5116484;28;20048;-44
2022/03/30 05:30:14;;;;;;;26.73;13.40;;;;;;;;;;5116301;28;20034;-44
2022/03/30 05:32:48;;;;;;;24.90;13.57;;;;;;;;;;5097341;28;20394;-44
2022/03/30 05:35:14;;;;;;;32.15;13.38;;;;;;;;;;5116379;28;20502;-43
2022/03/30 05:37:40;;;;;;;41.65;16.08;;;;;;;;;;5116357;28;20019;-51
2022/03/30 05:40:09;;;;;;;74.43;30.02;;;;;;;;;;5115749;28;20480;-43
2022/03/30 05:42:35;;;;;;;75.03;30.95;;;;;;;;;;5116060;28;20497;-43
2022/03/30 05:45:02;;;;;;;47.03;22.00;;;;;;;;;;5116244;28;20023;-43
2022/03/30 05:47:28;;;;;;;41.17;17.85;;;;;;;;;;5115810;28;20015;-44
2022/03/30 05:49:55;;;;;;;30.50;15.80;;;;;;;;;;5115449;28;20056;-57
2022/03/30 05:52:21;;;;;;;34.17;16.38;;;;;;;;;;5115729;28;20027;-51
2022/03/30 05:54:47;;;;;;;27.40;14.48;;;;;;;;;;5116025;28;20028;-46
2022/03/30 05:57:16;;;;;;;22.38;12.10;;;;;;;;;;5115365;28;20042;-47
2022/03/30 05:59:43;;;;;;;20.85;11.35;;;;;;;;;;5115547;28;20035;-44
2022/03/30 06:02:11;;;;;;;21.00;11.23;;;;;;;;;;5115627;28;20020;-45
2022/03/30 06:04:38;;;;;;;26.52;11.05;;;;;;;;;;5115650;28;20084;-53
2022/03/30 06:07:05;;;;;;;25.02;11.13;;;;;;;;;;5115769;28;20020;-44
2022/03/30 06:09:33;;;;;;;16.33;10.25;;;;;;;;;;5115794;28;20355;-46
2022/03/30 06:12:00;;;;;;;19.42;10.65;;;;;;;;;;5115429;28;20074;-48
2022/03/30 06:14:26;;;;;;;19.75;11.32;;;;;;;;;;5115295;28;20496;-47
2022/03/30 06:16:55;;;;;;;26.88;11.20;;;;;;;;;;5111734;28;20020;-45
2022/03/30 06:19:21;;;;;;;25.33;10.65;;;;;;;;;;5111210;28;20023;-46
2022/03/30 06:21:48;;;;;;;20.42;9.95;;;;;;;;;;5115346;28;20482;-47
2022/03/30 06:24:14;;;;;;;25.85;11.73;;;;;;;;;;5115538;28;20024;-48
2022/03/30 06:26:41;;;;;;;21.85;11.18;;;;;;;;;;5115063;28;20055;-48
2022/03/30 06:29:07;;;;;;;26.65;11.25;;;;;;;;;;5115448;28;20027;-45
2022/03/30 06:31:33;;;;;;;26.10;10.57;;;;;;;;;;5115396;28;20026;-44
2022/03/30 06:34:02;;;;;;;23.95;9.40;;;;;;;;;;5115044;28;20027;-44
2022/03/30 06:36:29;;;;;;;19.58;8.98;;;;;;;;;;5114887;28;20030;-44
2022/03/30 06:38:56;;;;;;;20.20;7.82;;;;;;;;;;5114962;28;20019;-49
2022/03/30 06:41:24;;;;;;;19.70;6.47;;;;;;;;;;5114558;28;20559;-47
2022/03/30 06:43:50;;;;;;;15.23;6.35;;;;;;;;;;5114802;28;20497;-60
2022/03/30 06:46:17;;;;;;;27.80;7.45;;;;;;;;;;5114761;28;20027;-62
2022/03/30 06:48:45;;;;;;;17.70;6.93;;;;;;;;;;5114516;28;20043;-45
2022/03/30 06:51:12;;;;;;;17.55;8.02;;;;;;;;;;5114622;28;20051;-54
2022/03/30 06:53:38;;;;;;;20.80;7.53;;;;;;;;;;5114552;28;20030;-61
2022/03/30 06:56:04;;;;;;;31.77;8.93;;;;;;;;;;5114361;28;20100;-47
2022/03/30 06:58:30;;;;;;;22.25;8.32;;;;;;;;;;5114631;28;20058;-43
2022/03/30 07:01:00;;;;;;;28.25;7.57;;;;;;;;;;5114382;28;20091;-46
2022/03/30 07:03:29;;;;;;;17.02;6.15;;;;;;;;;;5114349;28;20024;-43
2022/03/30 07:05:56;;;;;;;19.55;7.22;;;;;;;;;;5096277;28;20034;-44
2022/03/30 07:11:07;;;;;;;21.45;7.07;;;;;;;;;;5114534;28;20049;-44
2022/03/30 07:13:33;;;;;;;18.90;6.60;;;;;;;;;;5114273;28;20420;-47
2022/03/30 07:16:02;;;;;;;24.25;7.63;;;;;;;;;;5114312;28;20020;-54
2022/03/30 07:18:28;;;;;;;26.63;9.27;;;;;;;;;;5114373;28;20030;-42
2022/03/30 07:20:54;;;;;;;25.38;8.18;;;;;;;;;;5114216;28;20035;-43
2022/03/30 07:23:23;;;;;;;21.92;7.22;;;;;;;;;;5114189;28;20048;-42
2022/03/30 07:25:49;;;;;;;33.28;8.15;;;;;;;;;;5114167;28;20471;-58
2022/03/30 07:28:16;;;;;;;28.02;11.07;;;;;;;;;;5114047;28;20023;-43
2022/03/30 07:30:45;;;;;;;20.58;8.20;;;;;;;;;;5113956;28;20031;-47
2022/03/30 07:33:11;;;;;;;23.52;9.52;;;;;;;;;;5113776;28;20021;-43
2022/03/30 07:35:39;;;;;;;26.75;8.98;;;;;;;;;;5114029;28;20470;-55
2022/03/30 07:38:06;;;;;;;31.20;10.93;;;;;;;;;;5114059;28;20035;-59
2022/03/30 07:40:32;;;;;;;59.85;20.73;;;;;;;;;;5113887;28;20081;-45
2022/03/30 07:42:58;;;;;;;44.85;15.63;;;;;;;;;;5114175;28;20328;-51
2022/03/30 07:45:25;;;;;;;26.20;8.77;;;;;;;;;;5114265;28;20035;-53
2022/03/30 07:47:52;;;;;;;34.97;12.18;;;;;;;;;;5114060;28;20379;-44
2022/03/30 07:50:18;;;;;;;30.20;12.55;;;;;;;;;;5113705;28;20055;-53
2022/03/30 07:52:45;;;;;;;37.65;13.65;;;;;;;;;;5114083;28;20360;-44
2022/03/30 07:55:12;;;;;;;26.85;10.20;;;;;;;;;;5113674;28;20024;-48
2022/03/30 07:57:39;;;;;;;26.75;10.13;;;;;;;;;;5113738;28;20036;-49
2022/03/30 08:00:08;;;;;;;24.08;8.98;;;;;;;;;;5113622;28;20080;-47
2022/03/30 08:02:34;;;;;;;16.00;6.75;;;;;;;;;;5113516;28;20456;-49
2022/03/30 08:05:00;;;;;;;25.20;7.68;;;;;;;;;;5113822;28;20383;-45
2022/03/30 08:07:27;;;;;;;22.55;6.70;;;;;;;;;;5113609;28;20043;-43
2022/03/30 08:09:53;;;;;;;28.05;7.57;;;;;;;;;;5113662;28;20035;-55
2022/03/30 08:12:20;;;;;;;38.55;15.48;;;;;;;;;;5113440;28;20020;-54
2022/03/30 08:14:46;;;;;;;55.63;21.85;;;;;;;;;;5113415;28;20036;-47
2022/03/30 08:17:13;;;;;;;30.00;10.20;;;;;;;;;;5106924;28;20099;-48
2022/03/30 08:19:44;;;;;;;18.40;6.15;;;;;;;;;;5113624;28;20483;-49
2022/03/30 08:22:25;;;;;;;21.15;7.95;;;;;;;;;;5117569;28;20027;-57
2022/03/30 08:24:54;;;;;;;24.42;7.65;;;;;;;;;;5117609;28;20493;-53
2022/03/30 08:27:21;;;;;;;24.98;9.73;;;;;;;;;;5117300;28;20034;-46
2022/03/30 08:29:48;;;;;;;27.98;8.43;;;;;;;;;;5117460;28;20034;-47
2022/03/30 08:32:15;;;;;;;31.48;10.38;;;;;;;;;;5117364;28;20072;-47
2022/03/30 08:34:42;;;;;;;26.20;9.13;;;;;;;;;;5117503;28;20530;-46
2022/03/30 08:37:08;;;;;;;28.75;12.20;;;;;;;;;;5117263;28;20421;-49
2022/03/30 08:39:35;;;;;;;38.42;8.75;;;;;;;;;;5117174;28;20032;-53
2022/03/30 08:42:03;;;;;;;40.55;15.32;;;;;;;;;;5117164;28;20023;-48
2022/03/30 08:44:29;;;;;;;36.63;13.45;;;;;;;;;;5117059;28;20028;-45
2022/03/30 08:46:55;;;;;;;56.00;26.27;;;;;;;;;;5113205;28;20077;-50
2022/03/30 08:49:21;;;;;;;47.60;18.48;;;;;;;;;;5112783;28;20090;-45
2022/03/30 08:51:47;;;;;;;31.42;13.27;;;;;;;;;;5117152;28;20028;-58
2022/03/30 08:54:15;;;;;;;61.95;23.15;;;;;;;;;;5117233;28;20019;-57
2022/03/30 08:56:43;;;;;;;44.78;19.75;;;;;;;;;;5117016;28;20442;-45
2022/03/30 08:59:13;;;;;;;34.92;14.88;;;;;;;;;;5116671;28;20481;-43
2022/03/30 09:01:41;;;;;;;;;;;;;;;;;;5117157;28;20053;-41
2022/03/30 09:04:09;;;;;;;22.15;8.80;;;;;;;;;;5117009;28;19911;-44
2022/03/30 09:06:37;;;;;;;36.17;15.77;;;;;;;;;;5117040;28;20098;-47
2022/03/30 09:09:06;;;;;;;27.88;9.65;;;;;;;;;;5116738;28;20027;-58
2022/03/30 09:11:38;;;;;;;14.23;5.93;;;;;;;;;;5116660;28;20023;-60
2022/03/30 09:14:04;;;;;;;22.10;7.60;;;;;;;;;;5117062;28;20544;-49
2022/03/30 09:16:40;;;;;;;16.63;6.03;;;;;;;;;;5115972;28;20375;-56
2022/03/30 09:19:08;;;;;;;18.08;6.22;;;;;;;;;;5110370;28;20031;-44
2022/03/30 09:22:00;;;;;;;19.88;6.75;;;;;;;;;;5116541;28;20380;-49
2022/03/30 09:24:27;;;;;;;30.50;12.20;;;;;;;;;;5112613;28;20028;-51
2022/03/30 09:26:54;;;;;;;84.57;41.70;;;;;;;;;;5116415;28;20020;-51
2022/03/30 09:29:21;;;;;;;31.35;15.20;;;;;;;;;;5116356;28;20455;-48
2022/03/30 09:31:51;;;;;;;35.90;15.18;;;;;;;;;;5115511;28;20494;-44
2022/03/30 09:34:17;;;;;;;58.67;27.60;;;;;;;;;;5116217;28;20387;-49
2022/03/30 09:36:44;;;;;;;27.23;12.38;;;;;;;;;;5116302;28;20032;-49
2022/03/30 09:39:27;;;;;;;23.30;9.77;;;;;;;;;;5115982;28;20050;-49
2022/03/30 09:41:59;;;;;;;25.38;10.82;;;;;;;;;;5115905;28;20169;-49
2022/03/30 09:44:25;;;;;;;47.08;21.05;;;;;;;;;;5116345;28;20090;-58
2022/03/30 09:46:52;;;;;;;52.53;26.10;;;;;;;;;;5112320;28;20413;-59
2022/03/30 09:49:38;;;;;;;21.25;9.50;;;;;;;;;;5111074;28;20047;-57
2022/03/30 09:52:21;;;;;;;42.03;17.42;;;;;;;;;;5115839;28;20023;-44
2022/03/30 09:54:49;;;;;;;25.75;8.80;;;;;;;;;;5115864;28;20036;-59
2022/03/30 09:57:20;;;;;;;26.60;9.32;;;;;;;;;;5115632;28;20020;-61
2022/03/30 09:59:58;;;;;;;27.25;11.40;;;;;;;;;;5115631;28;20058;-55
2022/03/30 10:02:27;;;;;;;68.55;31.98;;;;;;;;;;5115651;28;20155;-56
2022/03/30 10:04:53;;;;;;;96.03;49.10;;;;;;;;;;5115919;28;20036;-48
2022/03/30 10:07:20;;;;;;;26.48;12.65;;;;;;;;;;5115621;28;20098;-59
2022/03/30 10:09:47;;;;;;;29.55;11.60;;;;;;;;;;5115567;28;20119;-61
2022/03/30 10:12:16;;;;;;;25.00;11.02;;;;;;;;;;5115454;28;20487;-50
2022/03/30 10:14:42;;;;;;;26.10;9.55;;;;;;;;;;5115418;28;20097;-50
2022/03/30 10:17:08;;;;;;;15.60;6.72;;;;;;;;;;5109512;28;20467;-61
2022/03/30 10:19:35;;;;;;;21.70;7.88;;;;;;;;;;5112994;28;20036;-59
2022/03/30 10:22:13;;;;;;;29.40;9.57;;;;;;;;;;5115393;28;20019;-47
2022/03/30 10:24:49;;;;;;;24.08;9.82;;;;;;;;;;5115503;28;20066;-64
2022/03/30 10:27:23;;;;;;;26.40;9.50;;;;;;;;;;5097036;28;20024;-56
2022/03/30 10:29:54;;;;;;;21.85;10.18;;;;;;;;;;5115224;28;20475;-60
2022/03/30 10:32:24;;;;;;;27.25;10.30;;;;;;;;;;5115264;28;20062;-63
2022/03/30 10:34:59;;;;;;;36.47;13.45;;;;;;;;;;5114984;28;20028;-51
2022/03/30 10:37:47;;;;;;;41.55;17.23;;;;;;;;;;5114957;28;20109;-61
2022/03/30 10:40:21;;;;;;;46.80;18.15;;;;;;;;;;5111736;28;20040;-50
2022/03/30 10:42:47;;;;;;;31.88;14.05;;;;;;;;;;5072741;28;20028;-45
2022/03/30 10:45:28;;;;;;;73.32;41.92;;;;;;;;;;5074111;28;20456;-53
2022/03/30 10:48:13;;;;;;;36.10;14.63;;;;;;;;;;5065886;28;20047;-51
2022/03/30 10:50:43;;;;;;;90.68;48.35;;;;;;;;;;5073835;28;20056;-45
2022/03/30 10:53:27;;;;;;;48.35;20.73;;;;;;;;;;5074275;28;20048;-51
2022/03/30 10:55:53;;;;;;;35.30;17.50;;;;;;;;;;5074091;28;20104;-47
2022/03/30 10:58:20;;;;;;;150.95;88.97;;;;;;;;;;5073922;28;20025;-50
2022/03/30 11:00:49;;;;;;;91.47;42.22;;;;;;;;;;5073951;28;20046;-59
2022/03/30 11:03:25;;;;;;;48.17;21.63;;;;;;;;;;5073794;28;20408;-55
2022/03/30 11:06:01;;;;;;;64.40;31.08;;;;;;;;;;5073967;28;20389;-47
2022/03/30 11:08:53;;;;;;;26.95;12.00;;;;;;;;;;5073642;28;20013;-52
2022/03/30 11:11:22;;;;;;;57.60;26.33;;;;;;;;;;5011998;28;20073;-45
2022/03/30 11:13:49;;;;;;;30.85;8.52;;;;;;;;;;5011961;28;20394;-44
2022/03/30 11:16:15;;;;;;;27.10;9.57;;;;;;;;;;5012110;28;20180;-53
2022/03/30 11:18:54;;;;;;;28.05;11.80;;;;;;;;;;5011907;28;20036;-52
2022/03/30 11:21:21;;;;;;;22.70;6.53;;;;;;;;;;5011892;28;20096;-56
2022/03/30 11:23:58;;;;;;;20.63;7.60;;;;;;;;;;5011988;28;20540;-59
2022/03/30 11:26:43;;;;;;;18.33;8.02;;;;;;;;;;5011860;28;20032;-45
2022/03/30 11:29:28;;;;;;;20.05;7.43;;;;;;;;;;5012165;28;20530;-49
2022/03/30 11:31:54;;;;;;;17.75;7.10;;;;;;;;;;5011945;28;20029;-51
2022/03/30 11:34:32;;;;;;;22.35;10.15;;;;;;;;;;5011865;28;20040;-49
2022/03/30 11:36:59;;;;;;;28.52;11.73;;;;;;;;;;5011710;28;20498;-49
2022/03/30 11:39:33;;;;;;;20.10;8.40;;;;;;;;;;5011761;28;20034;-50
2022/03/30 11:42:00;;;;;;;20.40;8.23;;;;;;;;;;5004593;28;20085;-55
2022/03/30 11:47:17;;;;;;;13.65;5.40;;;;;;;;;;5013311;28;20429;-45
2022/03/30 11:49:56;;;;;;;12.75;6.07;;;;;;;;;;5083199;28;20048;-49
2022/03/30 11:52:22;;;;;;;18.27;6.57;;;;;;;;;;5093504;28;20050;-51
2022/03/30 11:54:52;;;;;;;16.67;7.45;;;;;;;;;;5092921;28;20024;-49
2022/03/30 11:57:19;;;;;;;15.48;8.55;;;;;;;;;;5093287;28;20103;-49
2022/03/30 11:59:55;;;;;;;19.83;9.25;;;;;;;;;;5093141;28;20020;-46
2022/03/30 12:02:25;;;;;;;17.63;6.95;;;;;;;;;;5093574;28;20171;-54
2022/03/30 12:04:52;;;;;;;17.38;6.38;;;;;;;;;;5093350;28;20020;-47
2022/03/30 12:07:19;;;;;;;19.38;6.80;;;;;;;;;;5093247;28;20026;-48
2022/03/30 12:09:49;;;;;;;16.42;6.35;;;;;;;;;;5093283;28;20103;-52
2022/03/30 12:12:35;;;;;;;17.77;6.75;;;;;;;;;;5093424;28;20024;-48
2022/03/30 12:15:04;;;;;;;16.30;7.03;;;;;;;;;;5093170;28;20064;-49
2022/03/30 12:17:31;;;;;;;17.85;6.93;;;;;;;;;;5093032;28;20049;-56
2022/03/30 12:19:57;;;;;;;13.98;5.05;;;;;;;;;;5093064;28;20036;-51
2022/03/30 12:22:23;;;;;;;15.60;6.72;;;;;;;;;;5093586;28;20060;-44
2022/03/30 12:24:50;;;;;;;15.65;8.00;;;;;;;;;;5093228;28;20450;-48
2022/03/30 12:27:16;;;;;;;12.75;5.70;;;;;;;;;;5091937;28;20020;-45
2022/03/30 12:29:44;;;;;;;14.27;6.13;;;;;;;;;;5093336;28;20038;-53
2022/03/30 12:32:11;;;;;;;17.67;6.63;;;;;;;;;;5091485;28;20395;-44
2022/03/30 12:34:39;;;;;;;19.05;6.55;;;;;;;;;;5093205;28;20103;-47
2022/03/30 12:37:06;;;;;;;20.30;8.32;;;;;;;;;;5093202;28;20024;-45
2022/03/30 12:39:38;;;;;;;18.05;7.20;;;;;;;;;;5092924;28;20087;-45
2022/03/30 12:42:06;;;;;;;13.35;5.55;;;;;;;;;;5092931;28;20038;-45
2022/03/30 12:44:34;;;;;;;15.00;6.00;;;;;;;;;;5092911;28;20052;-45
2022/03/30 12:47:04;;;;;;;8.45;4.72;;;;;;;;;;5092917;28;20060;-46
2022/03/30 12:49:42;;;;;;;13.60;5.75;;;;;;;;;;5092785;28;20063;-46
2022/03/30 12:52:11;;;;;;;12.13;5.57;;;;;;;;;;5093198;28;20418;-45
2022/03/30 12:54:37;;;;;;;19.17;6.20;;;;;;;;;;5092743;28;20047;-53
2022/03/30 12:57:04;;;;;;;14.15;5.45;;;;;;;;;;5093001;28;20145;-48
2022/03/30 12:59:30;;;;;;;16.75;7.05;;;;;;;;;;5093021;28;20070;-48
2022/03/30 13:01:56;;;;;;;15.48;5.80;;;;;;;;;;5092989;28;20115;-55
2022/03/30 13:04:23;;;;;;;16.35;6.45;;;;;;;;;;5092782;28;20472;-57
2022/03/30 13:07:06;;;;;;;14.02;6.65;;;;;;;;;;5094943;28;20024;-57
2022/03/30 13:09:32;;;;;;;20.10;7.28;;;;;;;;;;5094431;28;20115;-49
2022/03/30 13:11:58;;;;;;;18.58;6.20;;;;;;;;;;5096454;28;20032;-45
2022/03/30 13:14:27;;;;;;;11.07;5.13;;;;;;;;;;5096184;28;20012;-46
2022/03/30 13:17:10;;;;;;;14.70;5.95;;;;;;;;;;5096289;28;20048;-45
2022/03/30 13:19:37;;;;;;;13.13;8.00;;;;;;;;;;5096212;28;20051;-45
2022/03/30 13:22:06;;;;;;;15.55;6.95;;;;;;;;;;5096077;28;20039;-44
2022/03/30 13:24:32;;;;;;;16.13;4.75;;;;;;;;;;5094763;28;20107;-45
2022/03/30 13:27:00;;;;;;;14.50;5.40;;;;;;;;;;5096247;28;20034;-45
2022/03/30 13:29:26;;;;;;;17.98;6.70;;;;;;;;;;5106819;28;20098;-45
2022/03/30 13:31:52;;;;;;;16.45;6.68;;;;;;;;;;5113031;28;20467;-52
2022/03/30 13:34:23;;;;;;;15.68;7.47;;;;;;;;;;5114769;28;20115;-48
2022/03/30 13:36:49;;;;;;;11.90;5.33;;;;;;;;;;5116280;28;20082;-52
2022/03/30 13:39:16;;;;;;;15.38;6.18;;;;;;;;;;5116027;28;20060;-57
2022/03/30 13:41:43;;;;;;;26.65;8.50;;;;;;;;;;5116019;28;20047;-43
2022/03/30 13:44:09;;;;;;;28.58;10.80;;;;;;;;;;5114982;28;20043;-56
2022/03/30 13:46:35;;;;;;;30.60;12.82;;;;;;;;;;5115852;28;20024;-50
2022/03/30 13:49:04;;;;;;;20.35;8.02;;;;;;;;;;5120078;27;20055;-46
2022/03/30 13:51:30;;;;;;;15.38;6.75;;;;;;;;;;5136647;27;20059;-45
2022/03/30 13:53:56;;;;;;;13.55;6.68;;;;;;;;;;5136528;27;20026;-42
2022/03/30 13:56:23;;;;;;;14.13;6.28;;;;;;;;;;5136290;27;20027;-45
2022/03/30 13:58:53;;;;;;;16.63;7.05;;;;;;;;;;5136493;27;20045;-44
2022/03/30 14:01:23;;;;;;;19.85;8.98;;;;;;;;;;5136309;27;20067;-44
2022/03/30 14:03:52;;;;;;;20.48;9.25;;;;;;;;;;5136207;27;20072;-55
2022/03/30 14:06:18;;;;;;;19.38;9.75;;;;;;;;;;5136316;27;20058;-50
2022/03/30 14:08:44;;;;;;;21.52;9.77;;;;;;;;;;5136125;27;20475;-45
2022/03/30 14:11:13;;;;;;;22.00;9.88;;;;;;;;;;5136042;27;20030;-47
2022/03/30 14:13:39;;;;;;;22.50;10.35;;;;;;;;;;5126852;27;20008;-52
2022/03/30 14:16:05;;;;;;;22.10;10.65;;;;;;;;;;5114791;28;20082;-46
2022/03/30 14:18:32;;;;;;;20.77;9.10;;;;;;;;;;5114330;28;20383;-55
2022/03/30 14:20:59;;;;;;;16.38;6.90;;;;;;;;;;5113558;28;20486;-47
2022/03/30 14:23:25;;;;;;;16.63;7.30;;;;;;;;;;5114691;28;20020;-45
2022/03/30 14:25:55;;;;;;;23.33;7.65;;;;;;;;;;5113977;28;20107;-44
2022/03/30 14:28:24;;;;;;;19.58;6.25;;;;;;;;;;5113827;28;20479;-50
2022/03/30 14:30:52;;;;;;;17.17;6.38;;;;;;;;;;5114433;28;20540;-48
2022/03/30 14:33:21;;;;;;;15.45;6.35;;;;;;;;;;5114533;28;20031;-45
2022/03/30 14:35:48;;;;;;;15.52;5.10;;;;;;;;;;5115309;28;20050;-46
2022/03/30 14:38:15;;;;;;;19.48;8.55;;;;;;;;;;5096628;28;20386;-47